PWSweather.com
Personal Weather Stations
Station Observations
INORDPAS37
Bondues, BonduesFR 59910

BonduesBonduesFR 59910

Lat: 50.7, Lon: 3.09

Elevation: 102

Station Type: Netatmo

http://bondues.meteoamikuze.com

High Low Average
Temperature 48.0°F8.9°C 41.2°F5.1°C 44.1°F6.7°C
Dew Point 36.7°F2.6°C 29.8°F-1.2°C 32.5°F0.3°C
Winds 4.3 mph 6.9 kmh Calm Calm 2.0 mph W3.2 kmh W
Wind Gusts 12.5 mph20.1 kmh 1.3 mph2.1 kmh 6.0 mph9.7 kmh
Humidity 71% 67% 69%
Pressure 29.95 in1014.2 mb 29.65 in1004.1 mb -
Precipitation 0.02 in0.5 mm - -
Hour Temp Dew Point Humidity Winds Wind Gusts Pressure Precip Precip Rate Daily Precip Total
12:04 AM 44.1°F6.7°C 31.3°F-0.4°C 66% 3.1 mph WSW5.0 kmh WSW 5.6 mph9.0 kmh 29.63 in1003.4 mb 0.00 in0.0 mm 0.00 in0.0 mm 0.00 in0.0 mm
12:24 AM 44.1°F6.7°C 31.8°F-0.1°C 67% 2.5 mph WSW4.0 kmh WSW 5.6 mph9.0 kmh 29.64 in1003.7 mb 0.00 in0.0 mm 0.00 in0.0 mm 0.00 in0.0 mm
12:45 AM 43.9°F6.6°C 31.6°F-0.2°C 67% 3.1 mph WSW5.0 kmh WSW 6.9 mph11.1 kmh 29.64 in1003.7 mb 0.00 in0.0 mm 0.00 in0.0 mm 0.00 in0.0 mm
01:05 AM 43.7°F6.5°C 31.8°F-0.1°C 68% 3.1 mph WSW5.0 kmh WSW 8.7 mph14.0 kmh 29.65 in1004.1 mb 0.00 in0.0 mm 0.00 in0.0 mm 0.00 in0.0 mm
01:25 AM 43.7°F6.5°C 31.8°F-0.1°C 68% 3.1 mph WSW5.0 kmh WSW 7.4 mph11.9 kmh 29.65 in1004.1 mb 0.00 in0.0 mm 0.00 in0.0 mm 0.00 in0.0 mm
01:45 AM 43.5°F6.4°C 32.0°F0.0°C 69% 4.3 mph W6.9 kmh W 10.5 mph16.9 kmh 29.66 in1004.4 mb 0.00 in0.0 mm 0.00 in0.0 mm 0.00 in0.0 mm
02:06 AM 43.3°F6.3°C 31.8°F-0.1°C 69% 3.1 mph W5.0 kmh W 7.4 mph11.9 kmh 29.67 in1004.7 mb 0.00 in0.0 mm 0.00 in0.0 mm 0.00 in0.0 mm
02:26 AM 43.2°F6.2°C 31.6°F-0.2°C 69% 3.8 mph W6.1 kmh W 8.1 mph13.0 kmh 29.67 in1004.7 mb 0.00 in0.0 mm 0.00 in0.0 mm 0.00 in0.0 mm
02:46 AM 43.0°F6.1°C 31.5°F-0.3°C 69% 3.8 mph W6.1 kmh W 11.2 mph18.0 kmh 29.67 in1004.7 mb 0.00 in0.0 mm 0.00 in0.0 mm 0.00 in0.0 mm
03:06 AM 42.8°F6.0°C 31.3°F-0.4°C 69% 3.1 mph W5.0 kmh W 8.1 mph13.0 kmh 29.68 in1005.1 mb 0.00 in0.0 mm 0.00 in0.0 mm 0.00 in0.0 mm
03:26 AM 42.8°F6.0°C 31.6°F-0.2°C 70% 3.1 mph W5.0 kmh W 7.4 mph11.9 kmh 29.69 in1005.4 mb 0.00 in0.0 mm 0.00 in0.0 mm 0.00 in0.0 mm
03:47 AM 42.6°F5.9°C 31.5°F-0.3°C 70% 3.1 mph W5.0 kmh W 6.9 mph11.1 kmh 29.69 in1005.4 mb 0.00 in0.0 mm 0.00 in0.0 mm 0.00 in0.0 mm
04:07 AM 42.1°F5.6°C 30.9°F-0.6°C 70% 3.8 mph WNW6.1 kmh WNW 7.4 mph11.9 kmh 29.69 in1005.4 mb 0.00 in0.0 mm 0.00 in0.0 mm 0.00 in0.0 mm
04:28 AM 41.7°F5.4°C 30.2°F-1.0°C 69% 2.5 mph W4.0 kmh W 4.9 mph7.9 kmh 29.70 in1005.8 mb 0.00 in0.0 mm 0.00 in0.0 mm 0.00 in0.0 mm
04:47 AM 41.5°F5.3°C 30.4°F-0.9°C 70% 3.1 mph W5.0 kmh W 7.4 mph11.9 kmh 29.71 in1006.1 mb 0.00 in0.0 mm 0.00 in0.0 mm 0.00 in0.0 mm
05:02 AM 41.5°F5.3°C 30.4°F-0.9°C 70% 3.8 mph WSW6.1 kmh WSW 9.8 mph15.8 kmh 29.71 in1006.1 mb 0.00 in0.0 mm 0.00 in0.0 mm 0.00 in0.0 mm
05:21 AM 41.4°F5.2°C 30.2°F-1.0°C 70% 3.8 mph W6.1 kmh W 6.9 mph11.1 kmh 29.72 in1006.4 mb 0.00 in0.0 mm 0.00 in0.0 mm 0.00 in0.0 mm
05:42 AM 41.2°F5.1°C 30.6°F-0.8°C 71% 3.8 mph WSW6.1 kmh WSW 8.1 mph13.0 kmh 29.72 in1006.4 mb 0.00 in0.0 mm 0.00 in0.0 mm 0.00 in0.0 mm
06:02 AM 41.2°F5.1°C 30.6°F-0.8°C 71% 2.5 mph W4.0 kmh W 5.6 mph9.0 kmh 29.73 in1006.8 mb 0.00 in0.0 mm 0.00 in0.0 mm 0.00 in0.0 mm
06:22 AM 41.2°F5.1°C 30.6°F-0.8°C 71% 3.1 mph W5.0 kmh W 7.4 mph11.9 kmh 29.74 in1007.1 mb 0.00 in0.0 mm 0.00 in0.0 mm 0.00 in0.0 mm
06:43 AM 41.4°F5.2°C 30.7°F-0.7°C 71% 2.5 mph W4.0 kmh W 5.6 mph9.0 kmh 29.75 in1007.5 mb 0.00 in0.0 mm 0.00 in0.0 mm 0.00 in0.0 mm
07:03 AM 41.5°F5.3°C 30.7°F-0.7°C 71% 3.1 mph W5.0 kmh W 6.9 mph11.1 kmh 29.76 in1007.8 mb 0.00 in0.0 mm 0.00 in0.0 mm 0.00 in0.0 mm
07:23 AM 41.7°F5.4°C 30.9°F-0.6°C 71% 2.5 mph W4.0 kmh W 6.9 mph11.1 kmh 29.77 in1008.1 mb 0.00 in0.0 mm 0.00 in0.0 mm 0.00 in0.0 mm
07:43 AM 41.9°F5.5°C 31.1°F-0.5°C 71% 2.5 mph WNW4.0 kmh WNW 6.9 mph11.1 kmh 29.78 in1008.5 mb 0.00 in0.0 mm 0.00 in0.0 mm 0.00 in0.0 mm
08:04 AM 42.3°F5.7°C 31.5°F-0.3°C 71% 3.1 mph W5.0 kmh W 8.7 mph14.0 kmh 29.79 in1008.8 mb 0.00 in0.0 mm 0.00 in0.0 mm 0.00 in0.0 mm
08:23 AM 42.6°F5.9°C 31.8°F-0.1°C 71% 3.8 mph WNW6.1 kmh WNW 9.4 mph15.1 kmh 29.80 in1009.1 mb 0.00 in0.0 mm 0.00 in0.0 mm 0.00 in0.0 mm
08:44 AM 43.2°F6.2°C 32.4°F0.2°C 71% 3.8 mph NW6.1 kmh NW 8.1 mph13.0 kmh 29.81 in1009.5 mb 0.00 in0.0 mm 0.00 in0.0 mm 0.00 in0.0 mm
09:04 AM 43.7°F6.5°C 32.9°F0.5°C 71% 3.1 mph WNW5.0 kmh WNW 12.5 mph20.1 kmh 29.82 in1009.8 mb 0.00 in0.0 mm 0.00 in0.0 mm 0.00 in0.0 mm
09:24 AM 44.2°F6.8°C 33.4°F0.8°C 71% 4.3 mph WNW6.9 kmh WNW 9.8 mph15.8 kmh 29.83 in1010.2 mb 0.00 in0.0 mm 0.00 in0.0 mm 0.00 in0.0 mm
09:46 AM 45.3°F7.4°C 34.5°F1.4°C 71% 3.1 mph WNW5.0 kmh WNW 8.1 mph13.0 kmh 29.85 in1010.8 mb 0.01 in0.3 mm 0.03 in0.8 mm 0.01 in0.3 mm
10:07 AM 44.1°F6.7°C 33.3°F0.7°C 71% 2.5 mph WNW4.0 kmh WNW 6.9 mph11.1 kmh 29.86 in1011.2 mb 0.02 in0.5 mm 0.01 in0.3 mm 0.02 in0.5 mm
10:27 AM 44.1°F6.7°C 33.3°F0.7°C 71% 3.8 mph WNW6.1 kmh WNW 8.1 mph13.0 kmh 29.87 in1011.5 mb 0.02 in0.5 mm 0.00 in0.0 mm 0.02 in0.5 mm
10:47 AM 44.2°F6.8°C 33.4°F0.8°C 71% 3.1 mph W5.0 kmh W 6.9 mph11.1 kmh 29.88 in1011.9 mb 0.00 in0.0 mm 0.00 in0.0 mm 0.02 in0.5 mm
11:07 AM 44.6°F7.0°C 33.8°F1.0°C 71% 1.8 mph WNW2.9 kmh WNW 4.9 mph7.9 kmh 29.88 in1011.9 mb 0.00 in0.0 mm 0.00 in0.0 mm 0.02 in0.5 mm
11:28 AM 45.5°F7.5°C 34.7°F1.5°C 71% 3.8 mph W6.1 kmh W 10.5 mph16.9 kmh 29.90 in1012.5 mb 0.00 in0.0 mm 0.00 in0.0 mm 0.02 in0.5 mm
11:48 AM 48.0°F8.9°C 36.7°F2.6°C 70% 3.8 mph WNW6.1 kmh WNW 9.4 mph15.1 kmh 29.90 in1012.5 mb 0.00 in0.0 mm 0.00 in0.0 mm 0.02 in0.5 mm
12:08 PM 47.8°F8.8°C 36.1°F2.3°C 69% 1.8 mph W2.9 kmh W 4.3 mph6.9 kmh 29.91 in1012.9 mb 0.00 in0.0 mm 0.00 in0.0 mm 0.02 in0.5 mm
12:28 PM 46.2°F7.9°C 34.2°F1.2°C 68% 3.1 mph W5.0 kmh W 8.1 mph13.0 kmh 29.92 in1013.2 mb 0.00 in0.0 mm 0.01 in0.3 mm 0.02 in0.5 mm
12:48 PM 45.1°F7.3°C 33.6°F0.9°C 69% 3.8 mph W6.1 kmh W 6.9 mph11.1 kmh 29.92 in1013.2 mb 0.00 in0.0 mm 0.00 in0.0 mm 0.02 in0.5 mm
01:09 PM 46.2°F7.9°C 34.5°F1.4°C 69% 3.8 mph WNW6.1 kmh WNW 9.8 mph15.8 kmh 29.93 in1013.5 mb 0.00 in0.0 mm 0.00 in0.0 mm 0.02 in0.5 mm
01:29 PM 45.3°F7.4°C 33.6°F0.9°C 69% 3.8 mph WNW6.1 kmh WNW 7.4 mph11.9 kmh 29.93 in1013.5 mb 0.00 in0.0 mm 0.00 in0.0 mm 0.02 in0.5 mm
01:55 PM 45.0°F7.2°C 33.4°F0.8°C 69% 2.5 mph W4.0 kmh W 6.9 mph11.1 kmh 29.93 in1013.5 mb 0.00 in0.0 mm 0.00 in0.0 mm 0.02 in0.5 mm
02:15 PM 45.7°F7.6°C 34.0°F1.1°C 69% 2.5 mph NW4.0 kmh NW 5.6 mph9.0 kmh 29.93 in1013.5 mb 0.00 in0.0 mm 0.00 in0.0 mm 0.02 in0.5 mm
02:35 PM 46.8°F8.2°C 35.1°F1.7°C 69% 2.5 mph NW4.0 kmh NW 5.6 mph9.0 kmh 29.93 in1013.5 mb 0.00 in0.0 mm 0.00 in0.0 mm 0.02 in0.5 mm
02:55 PM 46.8°F8.2°C 34.7°F1.5°C 68% 1.8 mph WNW2.9 kmh WNW 3.8 mph6.1 kmh 29.94 in1013.9 mb 0.00 in0.0 mm 0.00 in0.0 mm 0.02 in0.5 mm
03:15 PM 46.6°F8.1°C 34.5°F1.4°C 68% 1.8 mph WNW2.9 kmh WNW 4.9 mph7.9 kmh 29.94 in1013.9 mb 0.00 in0.0 mm 0.00 in0.0 mm 0.02 in0.5 mm
03:35 PM 46.4°F8.0°C 34.3°F1.3°C 68% 1.8 mph WNW2.9 kmh WNW 4.3 mph6.9 kmh 29.94 in1013.9 mb 0.00 in0.0 mm 0.00 in0.0 mm 0.02 in0.5 mm
03:55 PM 46.2°F7.9°C 34.2°F1.2°C 68% 1.8 mph W2.9 kmh W 3.8 mph6.1 kmh 29.94 in1013.9 mb 0.00 in0.0 mm 0.00 in0.0 mm 0.02 in0.5 mm
04:15 PM 45.9°F7.7°C 33.8°F1.0°C 68% 1.3 mph W2.1 kmh W 3.1 mph5.0 kmh 29.95 in1014.2 mb 0.00 in0.0 mm 0.00 in0.0 mm 0.02 in0.5 mm
04:35 PM 45.9°F7.7°C 33.8°F1.0°C 68% 1.3 mph SW2.1 kmh SW 3.1 mph5.0 kmh 29.94 in1013.9 mb 0.00 in0.0 mm 0.00 in0.0 mm 0.02 in0.5 mm
04:41 PM 46.4°F8.0°C 34.3°F1.3°C 68% 1.3 mph WSW2.1 kmh WSW 1.8 mph2.9 kmh 29.94 in1013.9 mb 0.00 in0.0 mm 0.00 in0.0 mm 0.02 in0.5 mm
05:15 PM 46.9°F8.3°C 34.5°F1.4°C 67% 1.3 mph WNW2.1 kmh WNW 3.8 mph6.1 kmh 29.94 in1013.9 mb 0.00 in0.0 mm 0.00 in0.0 mm 0.02 in0.5 mm
05:21 PM 47.5°F8.6°C 35.1°F1.7°C 67% 1.8 mph NW2.9 kmh NW 4.3 mph6.9 kmh 29.93 in1013.5 mb 0.00 in0.0 mm 0.00 in0.0 mm 0.02 in0.5 mm
05:49 PM 47.7°F8.7°C 35.2°F1.8°C 67% 0.7 mph NW1.1 kmh NW 2.5 mph4.0 kmh 29.93 in1013.5 mb 0.00 in0.0 mm 0.00 in0.0 mm 0.02 in0.5 mm
06:09 PM 47.3°F8.5°C 34.9°F1.6°C 67% 0.7 mph N1.1 kmh N 1.8 mph2.9 kmh 29.93 in1013.5 mb 0.00 in0.0 mm 0.00 in0.0 mm 0.02 in0.5 mm
06:29 PM 46.9°F8.3°C 34.5°F1.4°C 67% 0.7 mph NW1.1 kmh NW 1.3 mph2.1 kmh 29.94 in1013.9 mb 0.00 in0.0 mm 0.00 in0.0 mm 0.02 in0.5 mm
06:55 PM 46.8°F8.2°C 34.3°F1.3°C 67% 0.7 mph W1.1 kmh W 1.3 mph2.1 kmh 29.94 in1013.9 mb 0.00 in0.0 mm 0.00 in0.0 mm 0.02 in0.5 mm
07:08 PM 46.0°F7.8°C 33.6°F0.9°C 67% 0.7 mph SW1.1 kmh SW 1.3 mph2.1 kmh 29.94 in1013.9 mb 0.00 in0.0 mm 0.00 in0.0 mm 0.02 in0.5 mm
07:35 PM 45.5°F7.5°C 33.1°F0.6°C 67% Calm Calm 1.3 mph2.1 kmh 29.95 in1014.2 mb 0.00 in0.0 mm 0.00 in0.0 mm 0.02 in0.5 mm
07:46 PM 44.6°F7.0°C 32.2°F0.1°C 67% 0.7 mph SW1.1 kmh SW 1.8 mph2.9 kmh 29.94 in1013.9 mb 0.00 in0.0 mm 0.00 in0.0 mm 0.02 in0.5 mm
08:07 PM 44.1°F6.7°C 31.8°F-0.1°C 67% 0.7 mph S1.1 kmh S 1.8 mph2.9 kmh 29.95 in1014.2 mb 0.00 in0.0 mm 0.00 in0.0 mm 0.02 in0.5 mm
08:27 PM 43.7°F6.5°C 31.5°F-0.3°C 67% 0.7 mph S1.1 kmh S 2.5 mph4.0 kmh 29.94 in1013.9 mb 0.00 in0.0 mm 0.00 in0.0 mm 0.02 in0.5 mm
08:47 PM 43.3°F6.3°C 31.1°F-0.5°C 67% 1.3 mph SW2.1 kmh SW 1.8 mph2.9 kmh 29.94 in1013.9 mb 0.00 in0.0 mm 0.00 in0.0 mm 0.02 in0.5 mm
09:03 PM 43.2°F6.2°C 30.9°F-0.6°C 67% 0.7 mph SW1.1 kmh SW 1.3 mph2.1 kmh 29.94 in1013.9 mb 0.00 in0.0 mm 0.00 in0.0 mm 0.02 in0.5 mm
09:23 PM 42.8°F6.0°C 30.6°F-0.8°C 67% 0.7 mph W1.1 kmh W 1.3 mph2.1 kmh 29.94 in1013.9 mb 0.00 in0.0 mm 0.00 in0.0 mm 0.02 in0.5 mm
09:48 PM 42.6°F5.9°C 30.7°F-0.7°C 68% 0.7 mph SW1.1 kmh SW 1.3 mph2.1 kmh 29.94 in1013.9 mb 0.00 in0.0 mm 0.00 in0.0 mm 0.02 in0.5 mm
10:07 PM 42.3°F5.7°C 30.4°F-0.9°C 68% 0.7 mph SSW1.1 kmh SSW 2.5 mph4.0 kmh 29.93 in1013.5 mb 0.00 in0.0 mm 0.00 in0.0 mm 0.02 in0.5 mm
10:22 PM 42.3°F5.7°C 30.4°F-0.9°C 68% 1.3 mph S2.1 kmh S 3.1 mph5.0 kmh 29.93 in1013.5 mb 0.00 in0.0 mm 0.00 in0.0 mm 0.02 in0.5 mm
10:42 PM 42.4°F5.8°C 30.6°F-0.8°C 68% 0.7 mph SE1.1 kmh SE 2.5 mph4.0 kmh 29.93 in1013.5 mb 0.00 in0.0 mm 0.00 in0.0 mm 0.02 in0.5 mm
11:03 PM 42.4°F5.8°C 30.6°F-0.8°C 68% 1.3 mph SSE2.1 kmh SSE 2.5 mph4.0 kmh 29.92 in1013.2 mb 0.00 in0.0 mm 0.00 in0.0 mm 0.02 in0.5 mm
11:23 PM 42.3°F5.7°C 30.4°F-0.9°C 68% 0.7 mph SSE1.1 kmh SSE 1.8 mph2.9 kmh 29.91 in1012.9 mb 0.00 in0.0 mm 0.00 in0.0 mm 0.02 in0.5 mm
11:48 PM 42.1°F5.6°C 29.8°F-1.2°C 67% 1.3 mph S2.1 kmh S 3.8 mph6.1 kmh 29.91 in1012.9 mb 0.00 in0.0 mm 0.00 in0.0 mm 0.02 in0.5 mm